createdAt,value
2023-05-22T00:00:21.118Z,66.12
2023-05-22T00:01:25.004Z,66.59
2023-05-22T00:02:27.277Z,66.59
2023-05-22T00:03:29.799Z,66.62
2023-05-22T00:04:32.003Z,66.44
2023-05-22T00:05:34.080Z,66.13
2023-05-22T00:06:36.343Z,66.13
2023-05-22T00:07:39.371Z,66.14
2023-05-22T00:08:41.586Z,66.35
2023-05-22T00:09:43.487Z,66.32
2023-05-22T00:10:45.537Z,66.31
2023-05-22T00:11:47.501Z,66.77
2023-05-22T00:12:49.446Z,67.36
2023-05-22T00:13:51.389Z,67.39
2023-05-22T00:14:53.512Z,67.50
2023-05-22T00:15:55.508Z,67.89
2023-05-22T00:16:57.584Z,67.60
2023-05-22T00:18:00.037Z,68.15
2023-05-22T00:19:02.083Z,68.08
2023-05-22T00:20:05.977Z,68.32
2023-05-22T00:21:09.146Z,68.62
2023-05-22T00:22:11.590Z,68.92
2023-05-22T00:23:15.599Z,69.21
2023-05-22T00:24:17.709Z,69.47
2023-05-22T00:25:19.725Z,69.26
2023-05-22T00:26:21.908Z,69.09
2023-05-22T00:27:23.860Z,69.43
2023-05-22T00:28:26.771Z,69.15
2023-05-22T00:29:28.812Z,69.05
2023-05-22T00:30:31.536Z,68.91
2023-05-22T00:31:33.500Z,68.75
2023-05-22T00:32:35.547Z,68.66
2023-05-22T00:33:37.654Z,68.35
2023-05-22T00:34:40.109Z,68.82
2023-05-22T00:35:42.275Z,68.42
2023-05-22T00:36:44.432Z,68.05
2023-05-22T00:37:46.521Z,68.07
2023-05-22T00:38:48.783Z,68.02
2023-05-22T00:39:50.826Z,67.65
2023-05-22T00:40:52.858Z,67.80
2023-05-22T00:41:54.758Z,67.79
2023-05-22T00:42:56.809Z,67.76
2023-05-22T00:43:59.746Z,67.87
2023-05-22T00:45:01.664Z,67.85
2023-05-22T00:46:03.930Z,67.59
2023-05-22T00:47:05.997Z,67.53
2023-05-22T00:48:08.642Z,67.60
2023-05-22T00:49:11.049Z,67.62
2023-05-22T00:50:13.171Z,67.64
2023-05-22T00:51:16.035Z,67.69
2023-05-22T00:52:19.001Z,67.59
2023-05-22T00:53:23.553Z,67.52
2023-05-22T00:54:25.768Z,66.99
2023-05-22T00:55:27.866Z,66.81
2023-05-22T00:56:30.163Z,66.82
2023-05-22T00:57:34.394Z,66.73
2023-05-22T00:58:36.419Z,67.37
2023-05-22T00:59:38.646Z,67.14
2023-05-22T01:00:41.351Z,67.22
2023-05-22T01:01:43.529Z,66.99
2023-05-22T01:02:45.912Z,66.87
2023-05-22T01:03:49.940Z,66.78
2023-05-22T01:04:52.833Z,66.85
2023-05-22T01:05:55.298Z,67.36
2023-05-22T01:06:57.574Z,67.29
2023-05-22T01:07:59.795Z,67.19
2023-05-22T01:09:02.193Z,66.85
2023-05-22T01:10:05.691Z,66.88
2023-05-22T01:11:11.441Z,66.64
2023-05-22T01:12:28.983Z,66.68
2023-05-22T01:14:08.133Z,66.59
2023-05-22T01:15:25.708Z,66.77
2023-05-22T01:16:37.818Z,66.33
2023-05-22T01:18:07.580Z,66.69
2023-05-22T01:19:32.137Z,66.70
2023-05-22T01:20:38.747Z,66.91
2023-05-22T01:21:44.833Z,67.00
2023-05-22T01:23:05.566Z,67.09
2023-05-22T01:24:11.615Z,67.06
2023-05-22T01:25:36.768Z,67.29
2023-05-22T01:26:45.395Z,67.25
2023-05-22T01:27:57.088Z,66.82
2023-05-22T01:29:11.988Z,66.89
2023-05-22T01:30:30.034Z,67.95
2023-05-22T01:31:35.725Z,67.46
2023-05-22T01:32:40.108Z,67.67
2023-05-22T01:33:57.044Z,67.33
2023-05-22T01:35:01.624Z,67.43
2023-05-22T01:36:07.075Z,67.36
2023-05-22T01:37:09.940Z,67.44
2023-05-22T01:38:14.986Z,67.43
2023-05-22T01:39:18.131Z,67.46
2023-05-22T01:40:21.365Z,67.37
2023-05-22T01:41:23.658Z,67.40
2023-05-22T01:42:26.600Z,67.65
2023-05-22T01:43:30.008Z,67.75
2023-05-22T01:44:32.003Z,68.06
2023-05-22T01:45:34.002Z,67.86
2023-05-22T01:46:36.203Z,68.18
2023-05-22T01:47:38.261Z,68.77
2023-05-22T01:48:40.327Z,68.17
2023-05-22T01:49:43.384Z,67.73
2023-05-22T01:50:49.314Z,67.51
2023-05-22T01:53:30.024Z,67.69
2023-05-22T01:55:07.695Z,67.86
2023-05-22T01:56:13.754Z,68.72
2023-05-22T01:57:22.436Z,68.38
2023-05-22T01:58:44.984Z,68.76
2023-05-22T02:00:02.956Z,68.60
2023-05-22T02:01:08.279Z,68.59
2023-05-22T02:02:14.313Z,68.29
2023-05-22T02:03:20.683Z,68.01
2023-05-22T02:04:23.355Z,68.54
2023-05-22T02:05:28.030Z,68.62
2023-05-22T02:06:32.554Z,68.53
2023-05-22T02:07:38.215Z,68.70
2023-05-22T02:08:42.262Z,68.23
2023-05-22T02:09:46.990Z,68.13
2023-05-22T02:10:51.499Z,68.47
2023-05-22T02:11:53.520Z,68.20
2023-05-22T02:12:56.334Z,68.11
2023-05-22T02:13:58.234Z,68.02
2023-05-22T02:15:00.718Z,68.73
2023-05-22T02:16:04.418Z,68.42
2023-05-22T02:17:06.527Z,67.67
2023-05-22T02:18:11.583Z,69.17
2023-05-22T02:19:14.209Z,69.25
2023-05-22T02:20:18.488Z,69.28
2023-05-22T02:21:22.736Z,69.58
2023-05-22T02:22:24.753Z,69.28
2023-05-22T02:23:27.105Z,70.09
2023-05-22T02:24:32.139Z,70.27
2023-05-22T02:25:34.166Z,70.25
2023-05-22T02:26:36.504Z,70.60
2023-05-22T02:27:38.477Z,70.70
2023-05-22T02:28:40.468Z,70.81
2023-05-22T02:29:42.347Z,71.18
2023-05-22T02:30:44.526Z,71.58
2023-05-22T02:31:46.489Z,71.42
2023-05-22T02:32:48.600Z,70.99
2023-05-22T02:33:50.556Z,71.16
2023-05-22T02:34:54.657Z,71.07
2023-05-22T02:35:56.454Z,70.58
2023-05-22T02:36:59.740Z,69.91
2023-05-22T02:38:01.795Z,70.32
2023-05-22T02:39:04.764Z,69.77
2023-05-22T02:40:09.625Z,69.27
2023-05-22T02:41:12.894Z,68.95
2023-05-22T02:42:15.254Z,69.07
2023-05-22T02:43:17.259Z,69.10
2023-05-22T02:44:19.241Z,68.82
2023-05-22T02:45:21.637Z,69.45
2023-05-22T02:46:23.684Z,68.93
2023-05-22T02:47:25.741Z,69.22
2023-05-22T02:48:27.718Z,68.55
2023-05-22T02:49:29.606Z,68.56
2023-05-22T02:50:31.792Z,68.58
2023-05-22T02:51:33.791Z,68.11
2023-05-22T02:52:35.846Z,68.36
2023-05-22T02:53:37.846Z,68.12
2023-05-22T02:54:40.053Z,68.03
2023-05-22T02:55:42.843Z,68.12
2023-05-22T02:56:44.943Z,68.39
2023-05-22T02:57:47.167Z,68.06
2023-05-22T02:58:49.219Z,67.69
2023-05-22T02:59:51.373Z,67.94
2023-05-22T03:00:53.875Z,67.38
2023-05-22T03:01:55.978Z,67.36
2023-05-22T03:02:58.058Z,67.16
2023-05-22T03:04:00.199Z,66.84
2023-05-22T03:05:02.503Z,67.28
2023-05-22T03:06:04.995Z,67.05
2023-05-22T03:07:07.266Z,67.01
2023-05-22T03:08:09.346Z,67.88
2023-05-22T03:09:11.667Z,67.47
2023-05-22T03:10:14.074Z,67.09
2023-05-22T03:11:15.979Z,67.11
2023-05-22T03:12:17.887Z,66.96
2023-05-22T03:13:20.473Z,66.54
2023-05-22T03:14:22.373Z,66.60
2023-05-22T03:15:24.366Z,66.43
2023-05-22T03:16:26.472Z,66.37
2023-05-22T03:17:28.475Z,66.39
2023-05-22T03:18:30.551Z,66.05
2023-05-22T03:19:33.017Z,66.36
2023-05-22T03:20:35.184Z,67.08
2023-05-22T03:21:37.841Z,66.69
2023-05-22T03:22:39.908Z,67.09
2023-05-22T03:23:44.302Z,67.42
2023-05-22T03:24:46.242Z,66.94
2023-05-22T03:25:48.395Z,66.80
2023-05-22T03:26:50.723Z,66.38
2023-05-22T03:27:54.057Z,65.91
2023-05-22T03:28:57.046Z,65.79
2023-05-22T03:29:59.140Z,65.72
2023-05-22T03:31:03.561Z,65.39
2023-05-22T03:32:05.839Z,65.01
2023-05-22T03:33:07.859Z,64.71
2023-05-22T03:34:10.043Z,65.15
2023-05-22T03:35:12.285Z,64.41
2023-05-22T03:36:15.149Z,64.37
2023-05-22T03:37:17.067Z,64.62
2023-05-22T03:38:19.072Z,64.83
2023-05-22T03:39:20.964Z,64.81
2023-05-22T03:40:23.103Z,64.50
2023-05-22T03:41:25.133Z,64.14
2023-05-22T03:42:27.374Z,64.64
2023-05-22T03:43:29.393Z,63.15
2023-05-22T03:44:33.349Z,63.54
2023-05-22T03:45:35.313Z,63.26
2023-05-22T03:46:37.599Z,63.23
2023-05-22T03:47:39.953Z,62.70
2023-05-22T03:48:42.716Z,63.63
2023-05-22T03:49:44.602Z,62.92
2023-05-22T03:50:46.732Z,62.84
2023-05-22T03:51:48.658Z,62.15
2023-05-22T03:52:50.678Z,62.35
2023-05-22T03:53:52.716Z,61.68
2023-05-22T03:54:54.688Z,61.77
2023-05-22T03:55:56.686Z,61.18
2023-05-22T03:56:58.764Z,60.55
2023-05-22T03:58:00.681Z,60.43
2023-05-22T03:59:02.673Z,60.01
2023-05-22T04:00:06.184Z,59.70
2023-05-22T04:01:08.205Z,59.44
2023-05-22T04:02:10.234Z,58.73
2023-05-22T04:03:12.421Z,58.61
2023-05-22T04:04:14.857Z,58.25
2023-05-22T04:05:17.004Z,58.27
2023-05-22T04:06:19.072Z,57.86
2023-05-22T04:07:21.241Z,57.82
2023-05-22T04:08:23.671Z,57.34
2023-05-22T04:09:26.892Z,57.11
2023-05-22T04:10:28.914Z,56.66
2023-05-22T04:11:30.785Z,55.84
2023-05-22T04:12:32.885Z,55.20
2023-05-22T04:13:34.862Z,54.66
2023-05-22T04:14:36.840Z,53.70
2023-05-22T04:15:38.743Z,53.50
2023-05-22T04:16:40.785Z,52.96
2023-05-22T04:17:42.676Z,52.96
2023-05-22T04:18:44.881Z,52.32
2023-05-22T04:19:46.879Z,52.48
2023-05-22T04:20:48.952Z,51.55
2023-05-22T04:21:50.820Z,51.20
2023-05-22T04:22:52.955Z,51.20
2023-05-22T04:23:54.954Z,51.16
2023-05-22T04:24:56.974Z,50.66
2023-05-22T04:25:58.852Z,50.35
2023-05-22T04:27:00.959Z,51.17
2023-05-22T04:28:03.077Z,50.34
2023-05-22T04:29:05.307Z,49.85
2023-05-22T04:30:10.111Z,49.77
2023-05-22T04:31:13.035Z,49.40
2023-05-22T04:32:15.840Z,50.04
2023-05-22T04:33:17.715Z,49.02
2023-05-22T04:34:19.722Z,49.53
2023-05-22T04:35:21.594Z,49.53
2023-05-22T04:36:23.588Z,49.12
2023-05-22T04:37:25.463Z,49.08
2023-05-22T04:38:28.595Z,48.16
2023-05-22T04:39:30.477Z,48.28
2023-05-22T04:40:32.520Z,48.86
2023-05-22T04:41:34.473Z,47.99
2023-05-22T04:42:37.815Z,47.58
2023-05-22T04:43:39.924Z,47.29
2023-05-22T04:44:41.928Z,47.20
2023-05-22T04:45:44.063Z,46.91
2023-05-22T04:46:46.148Z,46.75
2023-05-22T04:47:48.178Z,46.18
2023-05-22T04:48:50.178Z,46.08
2023-05-22T04:49:52.207Z,45.85
2023-05-22T04:50:54.234Z,46.35
2023-05-22T04:51:56.121Z,45.57
2023-05-22T04:52:58.713Z,46.54
2023-05-22T04:54:00.647Z,46.14
2023-05-22T04:55:05.945Z,46.43
2023-05-22T04:56:08.315Z,46.29
2023-05-22T04:57:10.351Z,45.24
2023-05-22T04:58:12.236Z,45.26
2023-05-22T04:59:14.247Z,44.37
2023-05-22T05:00:17.661Z,44.21
2023-05-22T05:01:19.687Z,42.96
2023-05-22T05:02:21.766Z,43.09
2023-05-22T05:03:24.711Z,42.86
2023-05-22T05:04:26.689Z,42.84
2023-05-22T05:05:28.824Z,42.74
2023-05-22T05:06:30.858Z,42.80
2023-05-22T05:07:38.301Z,42.76
2023-05-22T05:08:40.326Z,42.31
2023-05-22T05:09:42.211Z,42.74
2023-05-22T05:10:44.176Z,42.83
2023-05-22T05:11:46.063Z,42.72
2023-05-22T05:12:48.104Z,42.49
2023-05-22T05:13:50.022Z,42.84
2023-05-22T05:14:52.068Z,43.54
2023-05-22T05:15:54.394Z,42.84
2023-05-22T05:16:56.596Z,42.23
2023-05-22T05:17:58.765Z,41.96
2023-05-22T05:19:00.991Z,41.67
2023-05-22T05:20:04.333Z,41.61
2023-05-22T05:21:06.248Z,41.66
2023-05-22T05:22:08.240Z,42.41
2023-05-22T05:23:10.286Z,42.19
2023-05-22T05:24:12.354Z,43.15
2023-05-22T05:25:14.397Z,42.79
2023-05-22T05:26:16.925Z,42.17
2023-05-22T05:27:18.838Z,42.12
2023-05-22T05:28:20.958Z,41.72
2023-05-22T05:29:23.233Z,42.54
2023-05-22T05:30:25.233Z,42.16
2023-05-22T05:31:27.220Z,41.87
2023-05-22T05:32:29.857Z,41.94
2023-05-22T05:33:32.259Z,42.38
2023-05-22T05:34:35.367Z,41.51
2023-05-22T05:35:37.318Z,41.20
2023-05-22T05:36:39.643Z,41.05
2023-05-22T05:37:41.557Z,40.88
2023-05-22T05:38:43.625Z,41.23
2023-05-22T05:39:45.553Z,41.26
2023-05-22T05:40:48.461Z,40.50
2023-05-22T05:41:50.373Z,40.57
2023-05-22T05:42:52.271Z,40.85
2023-05-22T05:43:54.259Z,40.65
2023-05-22T05:44:56.176Z,41.37
2023-05-22T05:45:58.108Z,41.04
2023-05-22T05:47:00.468Z,40.61
2023-05-22T05:48:02.792Z,40.50
2023-05-22T05:49:08.726Z,40.21
2023-05-22T05:50:11.061Z,40.24
2023-05-22T05:51:13.089Z,40.33
2023-05-22T05:52:15.104Z,42.09
2023-05-22T05:53:17.123Z,41.26
2023-05-22T05:54:19.159Z,40.78
2023-05-22T05:55:22.011Z,41.30
2023-05-22T05:56:24.153Z,41.07
2023-05-22T05:57:27.109Z,41.06
2023-05-22T05:58:29.239Z,41.03
2023-05-22T05:59:31.162Z,42.20
2023-05-22T06:00:33.374Z,41.44
2023-05-22T06:01:37.269Z,41.40
2023-05-22T06:02:39.279Z,41.79
2023-05-22T06:03:41.440Z,40.80
2023-05-22T06:04:43.602Z,40.81
2023-05-22T06:05:45.572Z,41.17
2023-05-22T06:06:47.765Z,41.36
2023-05-22T06:07:51.237Z,40.16
2023-05-22T06:08:53.156Z,39.69
2023-05-22T06:09:55.056Z,39.82
2023-05-22T06:10:57.185Z,40.05
2023-05-22T06:11:59.215Z,40.72
2023-05-22T06:13:01.141Z,41.80
2023-05-22T06:14:04.489Z,41.11
2023-05-22T06:15:07.208Z,41.57
2023-05-22T06:16:09.461Z,41.34
2023-05-22T06:17:11.535Z,41.29
2023-05-22T06:18:13.615Z,41.38
2023-05-22T06:19:15.571Z,41.60
2023-05-22T06:20:17.974Z,41.19
2023-05-22T06:21:19.865Z,40.85
2023-05-22T06:22:21.745Z,40.94
2023-05-22T06:23:23.620Z,41.70
2023-05-22T06:24:25.502Z,40.99
2023-05-22T06:25:27.395Z,41.26
2023-05-22T06:26:29.799Z,41.77
2023-05-22T06:27:31.960Z,40.61
2023-05-22T06:28:33.986Z,41.12
2023-05-22T06:29:35.899Z,41.28
2023-05-22T06:30:40.417Z,40.02
2023-05-22T06:31:42.492Z,39.72
2023-05-22T06:32:45.008Z,39.58
2023-05-22T06:33:47.406Z,38.97
2023-05-22T06:34:49.400Z,38.80
2023-05-22T06:35:51.290Z,38.63
2023-05-22T06:36:53.393Z,38.35
2023-05-22T06:37:55.510Z,38.35
2023-05-22T06:38:57.490Z,38.36
2023-05-22T06:39:59.405Z,38.62
2023-05-22T06:41:01.504Z,38.40
2023-05-22T06:42:03.565Z,38.62
2023-05-22T06:43:05.670Z,39.43
2023-05-22T06:44:07.934Z,38.77
2023-05-22T06:45:10.340Z,38.79
2023-05-22T06:46:13.762Z,38.58
2023-05-22T06:47:16.969Z,39.02
2023-05-22T06:48:19.008Z,39.48
2023-05-22T06:49:21.113Z,39.24
2023-05-22T06:50:23.286Z,38.98
2023-05-22T06:51:25.706Z,39.15
2023-05-22T06:52:27.819Z,39.70
2023-05-22T06:53:29.736Z,39.43
2023-05-22T06:54:31.637Z,39.09
2023-05-22T06:55:33.713Z,38.59
2023-05-22T06:56:35.850Z,37.97
2023-05-22T06:57:37.723Z,37.62
2023-05-22T06:58:39.622Z,37.58
2023-05-22T06:59:41.643Z,37.98
2023-05-22T07:00:43.755Z,38.39
2023-05-22T07:01:45.847Z,38.33
2023-05-22T07:02:47.950Z,38.11
2023-05-22T07:03:50.097Z,37.92
2023-05-22T07:04:52.335Z,38.48
2023-05-22T07:05:55.579Z,38.95
2023-05-22T07:06:57.727Z,39.46
2023-05-22T07:07:59.836Z,38.52
2023-05-22T07:09:01.809Z,38.33
2023-05-22T07:10:04.985Z,38.67
2023-05-22T07:11:06.885Z,37.76
2023-05-22T07:12:09.495Z,37.54
2023-05-22T07:13:11.961Z,37.21
2023-05-22T07:14:14.223Z,37.78
2023-05-22T07:15:16.141Z,37.23
2023-05-22T07:16:18.302Z,37.59
2023-05-22T07:17:20.494Z,37.76
2023-05-22T07:18:22.569Z,37.29
2023-05-22T07:19:24.612Z,37.22
2023-05-22T07:20:26.956Z,37.55
2023-05-22T07:21:28.837Z,37.12
2023-05-22T07:22:30.715Z,37.34
2023-05-22T07:23:32.620Z,36.89
2023-05-22T07:24:34.640Z,36.93
2023-05-22T07:25:36.619Z,36.98
2023-05-22T07:26:41.011Z,36.49
2023-05-22T07:27:43.040Z,37.04
2023-05-22T07:28:44.981Z,36.68
2023-05-22T07:29:46.903Z,37.00
2023-05-22T07:30:49.326Z,36.67
2023-05-22T07:31:51.484Z,36.79
2023-05-22T07:32:53.528Z,36.68
2023-05-22T07:33:55.642Z,36.55
2023-05-22T07:34:57.651Z,36.82
2023-05-22T07:35:59.554Z,36.54
2023-05-22T07:37:05.420Z,36.55
2023-05-22T07:38:07.382Z,36.75
2023-05-22T07:39:10.565Z,36.38
2023-05-22T07:40:12.993Z,36.40
2023-05-22T07:41:15.226Z,36.86
2023-05-22T07:42:17.130Z,36.88
2023-05-22T07:43:19.150Z,36.48
2023-05-22T07:44:21.142Z,36.50
2023-05-22T07:45:23.440Z,36.50
2023-05-22T07:46:25.962Z,36.32
2023-05-22T07:47:28.102Z,36.06
2023-05-22T07:48:30.122Z,36.28
2023-05-22T07:49:32.324Z,36.48
2023-05-22T07:50:34.682Z,36.91
2023-05-22T07:51:36.850Z,36.57
2023-05-22T07:52:38.772Z,36.27
2023-05-22T07:53:40.809Z,36.59
2023-05-22T07:54:45.292Z,35.94
2023-05-22T07:55:47.820Z,36.10
2023-05-22T07:56:49.881Z,36.63
2023-05-22T07:57:51.945Z,37.03
2023-05-22T07:58:53.935Z,37.69
2023-05-22T07:59:56.382Z,37.01
2023-05-22T08:00:58.483Z,36.16
2023-05-22T08:02:01.196Z,36.17
2023-05-22T08:03:03.943Z,35.48
2023-05-22T08:04:06.079Z,35.56
2023-05-22T08:05:09.440Z,35.26
2023-05-22T08:06:11.985Z,35.44
2023-05-22T08:07:14.190Z,35.40
2023-05-22T08:08:16.177Z,35.76
2023-05-22T08:09:18.074Z,36.08
2023-05-22T08:10:20.083Z,35.43
2023-05-22T08:11:22.088Z,35.06
2023-05-22T08:12:24.454Z,36.11
2023-05-22T08:13:26.349Z,35.69
2023-05-22T08:14:29.646Z,35.45
2023-05-22T08:15:32.278Z,35.31
2023-05-22T08:16:34.716Z,35.49
2023-05-22T08:17:37.047Z,35.52
2023-05-22T08:18:39.124Z,35.67
2023-05-22T08:19:41.248Z,35.19
2023-05-22T08:20:43.609Z,35.41
2023-05-22T08:21:45.633Z,34.98
2023-05-22T08:22:47.547Z,35.11
2023-05-22T08:23:49.455Z,35.08
2023-05-22T08:24:51.467Z,35.47
2023-05-22T08:25:53.484Z,35.44
2023-05-22T08:26:56.693Z,35.36
2023-05-22T08:27:58.619Z,35.40
2023-05-22T08:29:00.819Z,35.65
2023-05-22T08:30:03.290Z,35.31
2023-05-22T08:31:05.480Z,35.18
2023-05-22T08:32:07.524Z,35.37
2023-05-22T08:33:09.768Z,35.12
2023-05-22T08:34:11.880Z,35.46
2023-05-22T08:35:14.162Z,35.44
2023-05-22T08:36:16.422Z,35.73
2023-05-22T08:37:18.385Z,35.77
2023-05-22T08:38:20.577Z,35.89
2023-05-22T08:39:22.656Z,35.49
2023-05-22T08:40:28.395Z,35.26
2023-05-22T08:41:30.488Z,35.36
2023-05-22T08:42:32.412Z,34.86
2023-05-22T08:43:34.931Z,34.53
2023-05-22T08:44:37.185Z,34.26
2023-05-22T08:45:39.184Z,34.50
2023-05-22T08:46:41.336Z,34.45
2023-05-22T08:47:44.246Z,34.75
2023-05-22T08:48:47.488Z,34.63
2023-05-22T08:49:51.092Z,34.25
2023-05-22T08:50:53.805Z,33.79
2023-05-22T08:51:59.571Z,33.49
2023-05-22T08:53:05.855Z,33.74
2023-05-22T08:54:08.820Z,33.22
2023-05-22T08:55:11.216Z,33.28
2023-05-22T08:56:13.990Z,33.27
2023-05-22T08:57:17.320Z,33.22
2023-05-22T08:59:31.689Z,32.80
2023-05-22T09:00:33.995Z,32.75
2023-05-22T09:01:37.186Z,33.02
2023-05-22T09:02:40.081Z,33.10
2023-05-22T09:03:42.635Z,33.09
2023-05-22T09:04:45.462Z,33.19
2023-05-22T09:05:47.470Z,33.00
2023-05-22T09:06:49.756Z,32.66
2023-05-22T09:07:55.275Z,32.65
2023-05-22T09:09:00.756Z,33.34
2023-05-22T09:10:03.147Z,33.64
2023-05-22T09:11:05.509Z,33.68
2023-05-22T09:12:09.327Z,33.61
2023-05-22T09:13:15.185Z,33.11
2023-05-22T09:14:18.161Z,32.70
2023-05-22T09:15:21.933Z,33.53
2023-05-22T09:16:24.818Z,33.45
2023-05-22T09:17:28.048Z,33.45
2023-05-22T09:18:31.222Z,33.84
2023-05-22T09:19:33.316Z,34.25
2023-05-22T09:20:38.624Z,34.02
2023-05-22T09:21:41.358Z,33.72
2023-05-22T09:22:43.353Z,33.59
2023-05-22T09:23:50.021Z,34.14
2023-05-22T09:24:52.128Z,34.24
2023-05-22T09:25:59.304Z,34.00
2023-05-22T09:27:03.110Z,33.67
2023-05-22T09:28:05.028Z,33.50
2023-05-22T09:29:08.392Z,33.71
2023-05-22T09:30:14.012Z,33.84
2023-05-22T09:31:16.001Z,34.19
2023-05-22T09:32:19.377Z,34.22
2023-05-22T09:33:22.573Z,34.33
2023-05-22T09:34:29.320Z,34.78
2023-05-22T09:35:31.875Z,34.92
2023-05-22T09:36:35.990Z,35.06
2023-05-22T09:37:39.573Z,34.88
2023-05-22T09:38:41.480Z,34.76
2023-05-22T09:39:48.126Z,34.54
2023-05-22T09:40:54.467Z,34.57
2023-05-22T09:42:00.223Z,34.81
2023-05-22T09:43:07.275Z,34.41
2023-05-22T09:44:14.498Z,34.29
2023-05-22T09:45:21.718Z,33.73
2023-05-22T09:46:23.873Z,33.42
2023-05-22T09:47:25.872Z,33.07
2023-05-22T09:48:27.858Z,32.80
2023-05-22T09:49:29.860Z,32.64
2023-05-22T09:50:32.291Z,33.54
2023-05-22T09:51:37.071Z,34.08
2023-05-22T09:52:39.391Z,33.84
2023-05-22T09:53:43.621Z,34.09
2023-05-22T09:54:49.306Z,33.91
2023-05-22T09:55:53.973Z,34.36
2023-05-22T09:56:58.857Z,34.45
2023-05-22T09:58:03.663Z,34.39
2023-05-22T09:59:08.474Z,34.34
2023-05-22T10:00:15.368Z,34.20
2023-05-22T10:01:20.579Z,34.26
2023-05-22T10:02:24.345Z,34.20
2023-05-22T10:03:27.004Z,34.73
2023-05-22T10:04:32.331Z,34.44
2023-05-22T10:05:36.804Z,34.02
2023-05-22T10:06:41.549Z,33.99
2023-05-22T10:07:47.345Z,33.99
2023-05-22T10:08:53.358Z,33.99
2023-05-22T10:09:59.055Z,34.21
2023-05-22T10:11:02.777Z,34.27
2023-05-22T10:12:09.470Z,34.22
2023-05-22T10:13:12.286Z,33.99
2023-05-22T10:14:16.320Z,34.33
2023-05-22T10:15:20.118Z,33.58
2023-05-22T10:16:25.060Z,33.09
2023-05-22T10:17:27.699Z,33.22
2023-05-22T10:18:31.026Z,32.97
2023-05-22T10:19:35.839Z,33.25
2023-05-22T10:20:39.755Z,34.03
2023-05-22T10:21:42.038Z,34.36
2023-05-22T10:22:46.710Z,34.68
2023-05-22T10:23:49.997Z,34.27
2023-05-22T10:24:53.487Z,33.97
2023-05-22T10:25:56.953Z,32.94
2023-05-22T10:26:58.992Z,33.41
2023-05-22T10:28:03.081Z,33.24
2023-05-22T10:29:08.938Z,33.01
2023-05-22T10:30:27.620Z,32.74
2023-05-22T10:31:45.389Z,32.99
2023-05-22T10:32:54.252Z,33.07
2023-05-22T10:34:03.388Z,32.75
2023-05-22T10:35:21.663Z,32.19
2023-05-22T10:36:47.603Z,32.33
2023-05-22T10:37:52.691Z,32.24
2023-05-22T10:39:23.712Z,32.20
2023-05-22T10:40:29.213Z,32.63
2023-05-22T10:41:31.998Z,32.48
2023-05-22T10:42:37.265Z,32.87
2023-05-22T10:43:42.951Z,33.46
2023-05-22T10:44:49.068Z,33.18
2023-05-22T10:45:54.916Z,33.35
2023-05-22T10:46:57.114Z,33.56
2023-05-22T10:48:06.651Z,33.29
2023-05-22T10:49:08.832Z,33.57
2023-05-22T10:50:12.039Z,33.71
2023-05-22T10:51:16.630Z,33.35
2023-05-22T10:52:18.610Z,33.72
2023-05-22T10:53:26.331Z,33.87
2023-05-22T10:54:45.253Z,33.80
2023-05-22T10:55:58.031Z,33.67
2023-05-22T10:57:13.457Z,33.62
2023-05-22T10:58:16.851Z,33.31
2023-05-22T10:59:22.620Z,33.25
2023-05-22T11:00:24.662Z,33.25
2023-05-22T11:01:26.848Z,33.23
2023-05-22T11:02:29.276Z,32.92
2023-05-22T11:03:52.486Z,33.17
2023-05-22T11:04:54.753Z,33.06
2023-05-22T11:05:56.734Z,32.71
2023-05-22T11:07:03.876Z,32.21
2023-05-22T11:08:27.236Z,32.14
2023-05-22T11:09:35.839Z,32.13
2023-05-22T11:10:54.509Z,32.68
2023-05-22T11:12:15.759Z,33.18
2023-05-22T11:13:18.060Z,32.97
2023-05-22T11:14:20.169Z,32.81
2023-05-22T11:15:25.833Z,33.25
2023-05-22T11:16:33.580Z,33.57
2023-05-22T11:17:41.846Z,33.13
2023-05-22T11:18:45.351Z,32.62
2023-05-22T11:21:02.331Z,31.79
2023-05-22T11:22:04.683Z,31.65
2023-05-22T11:23:07.523Z,31.52
2023-05-22T11:24:10.270Z,32.33
2023-05-22T11:25:16.935Z,31.86
2023-05-22T11:26:21.026Z,31.80
2023-05-22T11:27:23.817Z,32.46
2023-05-22T11:28:26.722Z,32.70
2023-05-22T11:29:29.956Z,32.84
2023-05-22T11:30:34.091Z,32.53
2023-05-22T11:31:36.275Z,32.46
2023-05-22T11:32:40.318Z,32.34
2023-05-22T11:33:45.202Z,32.64
2023-05-22T11:34:47.810Z,32.62
2023-05-22T11:35:52.685Z,32.57
2023-05-22T11:37:01.025Z,32.44
2023-05-22T11:38:04.493Z,32.47
2023-05-22T11:39:06.400Z,32.66
2023-05-22T11:40:10.010Z,32.68
2023-05-22T11:41:12.118Z,32.60
2023-05-22T11:42:14.015Z,32.18
2023-05-22T11:43:19.649Z,31.90
2023-05-22T11:44:21.793Z,31.97
2023-05-22T11:45:23.913Z,31.60
2023-05-22T11:46:27.026Z,31.81
2023-05-22T11:47:29.335Z,30.45
2023-05-22T11:48:31.699Z,30.89
2023-05-22T11:49:34.007Z,30.95
2023-05-22T11:50:42.321Z,30.66
2023-05-22T11:51:40.251Z,30.51
2023-05-22T11:52:42.847Z,31.03
2023-05-22T11:53:45.831Z,31.06
2023-05-22T11:54:48.039Z,31.08
2023-05-22T11:55:49.958Z,31.24
2023-05-22T11:56:52.231Z,30.96
2023-05-22T11:57:55.896Z,31.35
2023-05-22T11:58:57.815Z,31.68
2023-05-22T12:00:00.841Z,31.99
2023-05-22T12:01:04.049Z,31.97
2023-05-22T12:02:06.948Z,31.95
2023-05-22T12:03:08.894Z,31.71
2023-05-22T12:04:11.118Z,31.30
2023-05-22T12:05:13.236Z,31.30
2023-05-22T12:06:17.718Z,31.11
2023-05-22T12:07:20.915Z,31.32
2023-05-22T12:08:24.661Z,30.88
2023-05-22T12:09:27.523Z,31.38
2023-05-22T12:10:30.732Z,31.44
2023-05-22T12:11:35.839Z,30.79
2023-05-22T12:12:37.785Z,31.77
2023-05-22T12:13:39.803Z,32.00
2023-05-22T12:14:44.568Z,31.64
2023-05-22T12:15:46.488Z,32.13
2023-05-22T12:16:51.232Z,31.65
2023-05-22T12:17:56.758Z,31.70
2023-05-22T12:18:59.216Z,32.07
2023-05-22T12:20:01.230Z,31.97
2023-05-22T12:21:05.361Z,31.32
2023-05-22T12:22:08.902Z,30.98
2023-05-22T12:23:12.427Z,31.04
2023-05-22T12:24:14.358Z,30.73
2023-05-22T12:25:16.547Z,30.61
2023-05-22T12:26:19.008Z,30.97
2023-05-22T12:27:21.064Z,31.17
2023-05-22T12:28:23.207Z,30.66
2023-05-22T12:29:25.258Z,30.57
2023-05-22T12:30:27.547Z,30.26
2023-05-22T12:31:35.279Z,30.21
2023-05-22T12:32:40.024Z,30.57
2023-05-22T12:33:43.750Z,30.85
2023-05-22T12:34:46.991Z,30.71
2023-05-22T12:35:53.117Z,30.86
2023-05-22T12:36:55.528Z,30.70
2023-05-22T12:37:57.563Z,30.37
2023-05-22T12:38:59.893Z,30.87
2023-05-22T12:40:04.138Z,29.69
2023-05-22T12:41:06.736Z,29.62
2023-05-22T12:42:08.822Z,30.14
2023-05-22T12:43:12.456Z,29.95
2023-05-22T12:44:16.361Z,29.86
2023-05-22T12:45:18.427Z,29.96
2023-05-22T12:46:20.661Z,30.23
2023-05-22T12:47:23.745Z,30.58
2023-05-22T12:48:25.859Z,30.85
2023-05-22T12:49:27.886Z,30.65
2023-05-22T12:50:29.877Z,30.55
2023-05-22T12:51:32.186Z,30.93
2023-05-22T12:52:34.408Z,30.79
2023-05-22T12:53:36.326Z,30.67
2023-05-22T12:54:38.334Z,30.55
2023-05-22T12:55:40.331Z,30.83
2023-05-22T12:56:42.365Z,30.83
2023-05-22T12:57:44.383Z,30.70
2023-05-22T12:58:46.434Z,30.75
2023-05-22T12:59:48.335Z,31.18
2023-05-22T13:00:50.429Z,30.95
2023-05-22T13:01:52.704Z,30.89
2023-05-22T13:02:55.528Z,30.87
2023-05-22T13:03:57.543Z,30.87
2023-05-22T13:04:59.667Z,30.58
2023-05-22T13:06:01.754Z,30.48
2023-05-22T13:07:03.771Z,30.58
2023-05-22T13:08:05.670Z,30.61
2023-05-22T13:09:07.586Z,30.12
2023-05-22T13:10:10.634Z,30.45
2023-05-22T13:11:12.743Z,30.53
2023-05-22T13:12:14.796Z,30.14
2023-05-22T13:13:16.988Z,29.91
2023-05-22T13:14:19.197Z,29.99
2023-05-22T13:15:21.079Z,29.84
2023-05-22T13:16:23.758Z,30.20
2023-05-22T13:17:26.544Z,30.47
2023-05-22T13:18:28.625Z,30.84
2023-05-22T13:19:30.676Z,30.40
2023-05-22T13:20:33.574Z,29.74
2023-05-22T13:21:36.508Z,29.56
2023-05-22T13:22:38.633Z,29.72
2023-05-22T13:23:41.277Z,29.83
2023-05-22T13:24:44.159Z,29.71
2023-05-22T13:25:46.314Z,29.89
2023-05-22T13:26:48.575Z,29.99
2023-05-22T13:27:51.844Z,29.57
2023-05-22T13:28:54.420Z,29.45
2023-05-22T13:29:56.334Z,29.43
2023-05-22T13:30:58.429Z,29.73
2023-05-22T13:32:01.054Z,29.81
2023-05-22T13:33:03.250Z,30.08
2023-05-22T13:34:05.312Z,29.84
2023-05-22T13:35:08.612Z,29.67
2023-05-22T13:36:11.113Z,29.36
2023-05-22T13:37:13.231Z,28.88
2023-05-22T13:38:15.204Z,28.76
2023-05-22T13:39:17.094Z,28.60
2023-05-22T13:40:19.141Z,28.49
2023-05-22T13:41:21.373Z,28.42